This is the latest recevied weather packets stored in our database for station/object VK2HIM-1. If no packets are shown the sender has not sent any weather packets the latest 10 day(s).
| Time | Temp. | Humidity | Pressure | Rain* | Wind** | Luminosity | Snow |
|---|---|---|---|---|---|---|---|
| 1777901628 | 16.11° C | 82% | 1015.7 hPa | 0 mm | - | - | - |
| 1777899829 | 16.11° C | 86% | 1015.8 hPa | 0 mm | - | - | - |
| 1777898029 | 16.11° C | 86% | 1016.1 hPa | 0 mm | - | - | - |
| 1777896229 | 16.11° C | 89% | 1016.3 hPa | 0 mm | - | - | - |
| 1777894429 | 16.11° C | 91% | 1016.1 hPa | 0 mm | - | - | - |
| 1777892629 | 16.11° C | 92% | 1016.3 hPa | 0 mm | - | - | - |
| 1777890829 | 16.67° C | 89% | 1015.7 hPa | 0 mm | - | - | - |
| 1777889029 | 18.89° C | 84% | 1015.4 hPa | 0 mm | - | - | - |
| 1777887229 | 18.89° C | 85% | 1014.8 hPa | 0 mm | - | - | - |
| 1777885429 | 19.44° C | 84% | 1014.4 hPa | 0 mm | - | - | - |
| 1777883629 | 18.89° C | 84% | 1013.9 hPa | 0 mm | - | - | - |
| 1777881828 | 19.44° C | 84% | 1013.3 hPa | 0 mm | - | - | - |
| 1777880028 | 19.44° C | 83% | 1013.2 hPa | 0 mm | - | - | - |
| 1777878228 | 20° C | 83% | 1012.8 hPa | 0 mm | - | - | - |
| 1777876428 | 20° C | 82% | 1013 hPa | 0 mm | - | - | - |
| 1777874628 | 20° C | 84% | 1012.8 hPa | 0 mm | - | - | - |
| 1777872828 | 20° C | 83% | 1012.7 hPa | 0 mm | - | - | - |
| 1777871028 | 19.44° C | 84% | 1012.5 hPa | 0 mm | - | - | - |
| 1777869228 | 19.44° C | 85% | 1012.8 hPa | 0 mm | - | - | - |
| 1777867428 | 19.44° C | 87% | 1012.8 hPa | 0 mm | - | - | - |
| 1777865627 | 19.44° C | 86% | 1013.2 hPa | 0 mm | - | - | - |
| 1777863829 | 18.89° C | 88% | 1013.9 hPa | 0 mm | - | - | - |
| 1777862026 | 18.89° C | 88% | 1014 hPa | 0 mm | - | - | - |
| 1777860226 | 18.33° C | 90% | 1014.3 hPa | 0 mm | - | - | - |
| 1777858426 | 17.78° C | 91% | 1015 hPa | 0 mm | - | - | - |
* Rain latest hour (hover to see other rain measurements)
** Current wind speed in m/s (hover to see current wind gust speed)